createdAt,value
2022-12-05T00:02:03.977Z,22.43
2022-12-05T00:04:32.408Z,20.33
2022-12-05T00:07:00.752Z,22.60
2022-12-05T00:09:29.146Z,21.73
2022-12-05T00:11:57.898Z,22.40
2022-12-05T00:14:26.298Z,20.30
2022-12-05T00:16:54.685Z,18.60
2022-12-05T00:19:24.549Z,15.47
2022-12-05T00:21:52.875Z,13.80
2022-12-05T00:24:21.726Z,21.80
2022-12-05T00:26:50.040Z,17.37
2022-12-05T00:29:18.398Z,19.30
2022-12-05T00:31:46.809Z,22.90
2022-12-05T00:34:15.161Z,13.37
2022-12-05T00:36:44.870Z,22.50
2022-12-05T00:39:15.324Z,17.90
2022-12-05T00:41:44.783Z,16.80
2022-12-05T00:44:14.107Z,14.50
2022-12-05T00:46:42.722Z,14.53
2022-12-05T00:49:12.667Z,15.80
2022-12-05T00:51:41.786Z,20.13
2022-12-05T00:54:12.394Z,12.50
2022-12-05T00:56:40.814Z,15.00
2022-12-05T00:59:09.787Z,9.83
2022-12-05T01:01:39.594Z,16.63
2022-12-05T01:04:09.655Z,10.53
2022-12-05T01:06:38.461Z,13.50
2022-12-05T01:09:06.950Z,9.97
2022-12-05T01:11:41.185Z,12.70
2022-12-05T01:14:09.958Z,14.53
2022-12-05T01:16:39.406Z,12.17
2022-12-05T01:19:09.082Z,20.40
2022-12-05T01:21:37.474Z,12.57
2022-12-05T01:24:06.049Z,15.90
2022-12-05T01:26:34.350Z,20.20
2022-12-05T01:29:04.270Z,12.60
2022-12-05T01:31:33.568Z,17.50
2022-12-05T01:34:02.907Z,12.10
2022-12-05T01:36:31.818Z,11.63
2022-12-05T01:39:00.335Z,18.63
2022-12-05T01:41:31.258Z,17.07
2022-12-05T01:44:01.391Z,15.37
2022-12-05T01:46:33.163Z,10.00
2022-12-05T01:49:03.903Z,16.57
2022-12-05T01:51:32.516Z,13.40
2022-12-05T01:54:01.286Z,12.43
2022-12-05T01:56:29.929Z,13.03
2022-12-05T01:58:58.408Z,16.20
2022-12-05T02:01:26.788Z,11.90
2022-12-05T02:03:58.772Z,17.07
2022-12-05T02:06:28.697Z,11.90
2022-12-05T02:08:57.123Z,11.03
2022-12-05T02:11:29.947Z,16.97
2022-12-05T02:14:04.176Z,13.00
2022-12-05T02:16:38.687Z,15.67
2022-12-05T02:19:21.882Z,13.83
2022-12-05T02:22:08.208Z,8.30
2022-12-05T02:24:55.303Z,13.60
2022-12-05T02:27:33.721Z,16.30
2022-12-05T02:30:06.291Z,14.90
2022-12-05T02:32:38.794Z,9.20
2022-12-05T02:35:11.360Z,14.13
2022-12-05T02:37:42.955Z,14.40
2022-12-05T02:40:14.334Z,14.13
2022-12-05T02:42:45.174Z,15.23
2022-12-05T02:45:17.022Z,18.53
2022-12-05T02:47:47.024Z,13.90
2022-12-05T02:50:17.008Z,16.20
2022-12-05T02:52:47.288Z,15.97
2022-12-05T02:55:16.221Z,12.07
2022-12-05T02:57:45.415Z,12.77
2022-12-05T03:00:16.010Z,15.63
2022-12-05T03:02:44.494Z,18.57
2022-12-05T03:05:17.185Z,7.10
2022-12-05T03:07:47.412Z,10.80
2022-12-05T03:10:17.247Z,12.57
2022-12-05T03:12:46.456Z,12.57
2022-12-05T03:15:17.639Z,12.07
2022-12-05T03:17:48.889Z,11.03
2022-12-05T03:20:21.048Z,10.67
2022-12-05T03:22:51.758Z,12.27
2022-12-05T03:25:20.384Z,13.93
2022-12-05T03:27:51.629Z,10.03
2022-12-05T03:30:22.573Z,17.93
2022-12-05T03:32:54.698Z,13.63
2022-12-05T03:35:25.227Z,14.37
2022-12-05T03:37:54.631Z,11.63
2022-12-05T03:40:29.338Z,16.20
2022-12-05T03:42:59.800Z,13.03
2022-12-05T03:45:33.792Z,15.33
2022-12-05T03:48:05.771Z,15.20
2022-12-05T03:50:36.835Z,16.07
2022-12-05T03:53:22.448Z,13.20
2022-12-05T03:55:52.926Z,15.23
2022-12-05T03:58:24.617Z,13.00
2022-12-05T04:00:55.510Z,17.67
2022-12-05T04:03:26.752Z,20.53
2022-12-05T04:05:57.299Z,14.20
2022-12-05T04:08:28.179Z,16.07
2022-12-05T04:10:59.396Z,23.57
2022-12-05T04:13:35.318Z,19.10
2022-12-05T04:16:24.332Z,20.77
2022-12-05T04:18:54.877Z,19.83
2022-12-05T04:21:38.917Z,14.43
2022-12-05T04:24:26.471Z,23.03
2022-12-05T04:26:58.352Z,23.27
2022-12-05T04:29:28.909Z,19.73
2022-12-05T04:32:00.475Z,15.90
2022-12-05T04:34:30.189Z,20.47
2022-12-05T04:37:01.670Z,9.57
2022-12-05T04:39:33.967Z,15.50
2022-12-05T04:42:04.015Z,18.60
2022-12-05T04:44:34.473Z,16.87
2022-12-05T04:47:05.648Z,16.53
2022-12-05T04:49:35.034Z,19.73
2022-12-05T04:52:04.890Z,10.93
2022-12-05T04:54:34.071Z,10.47
2022-12-05T04:57:07.206Z,13.00
2022-12-05T04:59:35.578Z,26.57
2022-12-05T05:02:08.540Z,15.80
2022-12-05T05:04:38.279Z,19.53
2022-12-05T05:07:07.808Z,14.40
2022-12-05T05:09:36.371Z,10.57
2022-12-05T05:12:04.836Z,16.77
2022-12-05T05:14:33.190Z,18.80
2022-12-05T05:17:01.651Z,15.17
2022-12-05T05:19:31.620Z,13.03
2022-12-05T05:22:00.386Z,15.13
2022-12-05T05:24:28.717Z,18.90
2022-12-05T05:26:57.651Z,23.10
2022-12-05T05:29:26.346Z,11.97
2022-12-05T05:31:54.717Z,21.00
2022-12-05T05:34:23.214Z,12.63
2022-12-05T05:36:54.498Z,18.17
2022-12-05T05:39:22.952Z,8.63
2022-12-05T05:41:51.303Z,10.27
2022-12-05T05:44:19.606Z,7.03
2022-12-05T05:46:48.100Z,9.33
2022-12-05T05:49:16.459Z,7.43
2022-12-05T05:51:44.768Z,9.80
2022-12-05T05:54:14.523Z,11.27
2022-12-05T05:56:42.850Z,7.10
2022-12-05T05:59:11.339Z,17.73
2022-12-05T06:01:39.695Z,17.27
2022-12-05T06:04:08.552Z,15.00
2022-12-05T06:06:37.090Z,7.70
2022-12-05T06:09:07.838Z,7.10
2022-12-05T06:11:37.550Z,6.77
2022-12-05T06:14:05.988Z,6.47
2022-12-05T06:16:34.480Z,7.60
2022-12-05T06:19:02.880Z,12.23
2022-12-05T06:21:31.460Z,5.13
2022-12-05T06:23:59.813Z,8.30
2022-12-05T06:26:28.158Z,7.27
2022-12-05T06:28:58.063Z,3.43
2022-12-05T06:31:30.984Z,7.60
2022-12-05T06:34:01.728Z,10.83
2022-12-05T06:36:30.286Z,6.50
2022-12-05T06:38:58.690Z,7.67
2022-12-05T06:41:27.727Z,3.93
2022-12-05T06:44:01.655Z,2.97
2022-12-05T06:46:32.379Z,5.77
2022-12-05T06:49:00.932Z,4.30
2022-12-05T06:51:29.309Z,4.27
2022-12-05T06:53:58.038Z,7.73
2022-12-05T06:56:26.375Z,6.50
2022-12-05T06:58:56.331Z,6.53
2022-12-05T07:01:41.477Z,5.13
2022-12-05T07:04:13.253Z,7.77
2022-12-05T07:06:44.020Z,8.70
2022-12-05T07:09:15.696Z,9.13
2022-12-05T07:11:44.196Z,10.87
2022-12-05T07:14:24.902Z,5.37
2022-12-05T07:17:00.966Z,5.13
2022-12-05T07:19:30.770Z,3.03
2022-12-05T07:21:59.118Z,5.60
2022-12-05T07:24:27.485Z,5.37
2022-12-05T07:26:55.734Z,7.57
2022-12-05T07:29:24.038Z,4.13
2022-12-05T07:31:52.346Z,5.87
2022-12-05T07:34:20.706Z,6.87
2022-12-05T07:36:50.456Z,7.13
2022-12-05T07:39:18.889Z,4.93
2022-12-05T07:41:47.242Z,5.30
2022-12-05T07:44:15.588Z,5.30
2022-12-05T07:46:44.397Z,8.13
2022-12-05T07:49:12.778Z,7.90
2022-12-05T07:51:41.324Z,3.97
2022-12-05T07:54:11.043Z,4.60
2022-12-05T07:56:43.302Z,6.03
2022-12-05T07:59:15.957Z,7.10
2022-12-05T08:01:44.365Z,7.23
2022-12-05T08:04:15.564Z,10.33
2022-12-05T08:06:44.486Z,4.60
2022-12-05T08:09:14.610Z,8.13
2022-12-05T08:11:45.889Z,5.13
2022-12-05T08:14:16.622Z,6.87
2022-12-05T08:16:45.034Z,5.73
2022-12-05T08:19:15.473Z,4.43
2022-12-05T08:21:43.948Z,7.77
2022-12-05T08:24:14.048Z,6.30
2022-12-05T08:26:42.399Z,2.47
2022-12-05T08:29:11.446Z,9.40
2022-12-05T08:31:42.079Z,6.93
2022-12-05T08:34:12.915Z,6.37
2022-12-05T08:36:41.644Z,4.57
2022-12-05T08:39:12.011Z,8.57
2022-12-05T08:41:41.735Z,5.73
2022-12-05T08:44:10.423Z,6.33
2022-12-05T08:46:39.848Z,7.13
2022-12-05T08:49:08.443Z,7.37
2022-12-05T08:51:37.003Z,3.07
2022-12-05T08:54:05.681Z,4.97
2022-12-05T08:56:34.134Z,8.33
2022-12-05T08:59:05.924Z,14.00
2022-12-05T09:01:39.180Z,5.43
2022-12-05T09:04:08.456Z,10.57
2022-12-05T09:06:39.671Z,5.00
2022-12-05T09:09:09.076Z,4.87
2022-12-05T09:11:40.849Z,9.23
2022-12-05T09:14:10.729Z,6.43
2022-12-05T09:16:39.738Z,7.30
2022-12-05T09:19:12.453Z,6.23
2022-12-05T09:21:40.856Z,3.83
2022-12-05T09:24:09.297Z,7.00
2022-12-05T09:26:37.662Z,5.83
2022-12-05T09:29:15.854Z,6.10
2022-12-05T09:31:51.572Z,2.87
2022-12-05T09:34:20.377Z,3.23
2022-12-05T09:37:05.535Z,6.63
2022-12-05T09:39:39.101Z,4.53
2022-12-05T09:42:20.217Z,6.80
2022-12-05T09:44:58.562Z,7.13
2022-12-05T09:47:34.397Z,10.17
2022-12-05T09:50:04.705Z,3.37
2022-12-05T09:52:35.615Z,3.53
2022-12-05T09:55:09.651Z,3.70
2022-12-05T09:57:40.123Z,9.97
2022-12-05T10:00:09.240Z,5.03
2022-12-05T10:02:43.634Z,5.53
2022-12-05T10:05:14.420Z,6.37
2022-12-05T10:07:50.423Z,4.43
2022-12-05T10:10:24.790Z,4.03
2022-12-05T10:12:58.485Z,7.23
2022-12-05T10:15:31.383Z,6.53
2022-12-05T10:18:03.237Z,3.97
2022-12-05T10:20:34.332Z,5.97
2022-12-05T10:23:04.325Z,5.20
2022-12-05T10:25:34.192Z,5.43
2022-12-05T10:28:04.389Z,5.47
2022-12-05T10:30:36.178Z,2.43
2022-12-05T10:33:12.680Z,5.87
2022-12-05T10:35:42.151Z,3.60
2022-12-05T10:38:13.445Z,4.23
2022-12-05T10:40:43.382Z,8.47
2022-12-05T10:43:13.967Z,6.90
2022-12-05T10:45:44.081Z,6.53
2022-12-05T10:48:15.934Z,4.70
2022-12-05T10:50:46.346Z,4.30
2022-12-05T10:53:17.320Z,3.53
2022-12-05T10:56:21.416Z,5.97
2022-12-05T10:58:36.138Z,6.07
2022-12-05T11:01:10.212Z,7.80
2022-12-05T11:03:41.519Z,3.07
2022-12-05T11:06:17.586Z,3.67
2022-12-05T11:09:04.253Z,2.50
2022-12-05T11:11:34.420Z,10.07
2022-12-05T11:14:03.761Z,4.63
2022-12-05T11:16:34.000Z,6.90
2022-12-05T11:19:19.704Z,3.30
2022-12-05T11:21:48.368Z,7.50
2022-12-05T11:24:23.275Z,4.83
2022-12-05T11:26:51.842Z,3.23
2022-12-05T11:29:34.578Z,4.13
2022-12-05T11:32:03.225Z,5.40
2022-12-05T11:34:34.955Z,6.07
2022-12-05T11:37:06.211Z,7.90
2022-12-05T11:39:35.269Z,7.57
2022-12-05T11:42:14.306Z,9.03
2022-12-05T11:44:53.788Z,4.93
2022-12-05T11:47:26.935Z,8.17
2022-12-05T11:50:06.229Z,5.47
2022-12-05T11:52:40.853Z,9.73
2022-12-05T11:55:15.865Z,4.83
2022-12-05T11:58:02.152Z,6.70
2022-12-05T12:00:37.287Z,11.90
2022-12-05T12:03:32.882Z,7.57
2022-12-05T12:06:10.123Z,5.80
2022-12-05T12:08:45.613Z,6.47
2022-12-05T12:11:17.465Z,8.17
2022-12-05T12:13:53.440Z,5.57
2022-12-05T12:16:28.476Z,5.20
2022-12-05T12:19:12.457Z,5.53
2022-12-05T12:21:50.530Z,5.43
2022-12-05T12:24:25.269Z,8.03
2022-12-05T12:26:59.552Z,5.07
2022-12-05T12:29:34.562Z,6.03
2022-12-05T12:32:07.831Z,3.13
2022-12-05T12:34:48.631Z,13.27
2022-12-05T12:37:25.773Z,6.80
2022-12-05T12:39:54.968Z,7.93
2022-12-05T12:42:25.872Z,6.40
2022-12-05T12:45:15.794Z,6.40
2022-12-05T12:47:56.399Z,11.87
2022-12-05T12:50:26.051Z,8.23
2022-12-05T12:53:01.760Z,11.23
2022-12-05T12:55:32.938Z,4.93
2022-12-05T12:58:07.802Z,7.77
2022-12-05T13:00:41.557Z,10.07
2022-12-05T13:03:13.616Z,4.07
2022-12-05T13:05:46.630Z,3.90
2022-12-05T13:08:20.287Z,2.53
2022-12-05T13:10:49.740Z,3.47
2022-12-05T13:13:20.573Z,2.60
2022-12-05T13:15:52.182Z,3.00
2022-12-05T13:18:22.557Z,7.77
2022-12-05T13:20:52.241Z,7.07
2022-12-05T13:23:27.150Z,5.03
2022-12-05T13:25:57.510Z,4.70
2022-12-05T13:28:31.642Z,5.70
2022-12-05T13:31:02.797Z,2.93
2022-12-05T13:33:35.232Z,4.47
2022-12-05T13:36:26.098Z,13.93
2022-12-05T13:39:17.371Z,7.07
2022-12-05T13:42:04.719Z,8.07
2022-12-05T13:44:37.120Z,3.60
2022-12-05T13:47:07.509Z,6.67
2022-12-05T13:49:40.793Z,3.93
2022-12-05T13:52:10.057Z,1.37
2022-12-05T13:54:45.372Z,4.37
2022-12-05T13:57:44.264Z,4.07
2022-12-05T14:00:24.116Z,2.93
2022-12-05T14:02:53.751Z,2.93
2022-12-05T14:05:41.954Z,6.53
2022-12-05T14:08:29.188Z,4.40
2022-12-05T14:11:13.155Z,4.47
2022-12-05T14:13:43.587Z,6.73
2022-12-05T14:16:30.813Z,4.43
2022-12-05T14:19:02.477Z,5.20
2022-12-05T14:21:38.541Z,3.93
2022-12-05T14:24:12.583Z,4.20
2022-12-05T14:26:51.302Z,5.40
2022-12-05T14:29:29.203Z,3.70
2022-12-05T14:32:06.055Z,1.93
2022-12-05T14:34:35.596Z,3.30
2022-12-05T14:37:05.329Z,3.77
2022-12-05T14:39:36.939Z,3.07
2022-12-05T14:42:09.137Z,7.80
2022-12-05T14:44:37.594Z,3.27
2022-12-05T14:47:06.710Z,7.33
2022-12-05T14:49:38.165Z,1.87
2022-12-05T14:52:12.393Z,2.00
2022-12-05T14:54:42.002Z,4.40
2022-12-05T14:57:18.820Z,4.23
2022-12-05T14:59:48.403Z,2.50
2022-12-05T15:02:21.680Z,4.57
2022-12-05T15:04:53.189Z,5.17
2022-12-05T15:07:23.088Z,3.23
2022-12-05T15:09:56.947Z,2.90
2022-12-05T15:12:28.109Z,8.77
2022-12-05T15:15:03.708Z,2.00
2022-12-05T15:17:37.635Z,4.33
2022-12-05T15:20:08.173Z,3.10
2022-12-05T15:22:39.362Z,1.57
2022-12-05T15:25:22.695Z,3.03
2022-12-05T15:28:03.385Z,2.60
2022-12-05T15:30:33.406Z,1.07
2022-12-05T15:33:03.032Z,2.20
2022-12-05T15:35:36.594Z,2.60
2022-12-05T15:38:10.589Z,3.20
2022-12-05T15:40:38.975Z,4.03
2022-12-05T15:43:29.694Z,2.90
2022-12-05T15:46:12.966Z,2.27
2022-12-05T15:48:41.286Z,7.23
2022-12-05T15:51:09.726Z,4.47
2022-12-05T15:53:39.351Z,2.43
2022-12-05T15:56:10.320Z,2.20
2022-12-05T15:58:43.498Z,3.57
2022-12-05T16:01:14.134Z,9.83
2022-12-05T16:03:45.838Z,1.77
2022-12-05T16:06:16.155Z,3.10
2022-12-05T16:08:49.854Z,3.97
2022-12-05T16:11:19.341Z,2.90
2022-12-05T16:13:53.011Z,3.27
2022-12-05T16:16:23.340Z,2.00
2022-12-05T16:18:52.423Z,2.53
2022-12-05T16:21:37.379Z,1.87
2022-12-05T16:24:09.155Z,1.60
2022-12-05T16:26:40.061Z,3.80
2022-12-05T16:29:28.226Z,3.47
2022-12-05T16:31:58.435Z,1.97
2022-12-05T16:34:27.459Z,3.10
2022-12-05T16:36:56.815Z,2.10
2022-12-05T16:39:25.889Z,2.27
2022-12-05T16:41:54.501Z,2.17
2022-12-05T16:44:57.817Z,1.60
2022-12-05T16:47:27.342Z,3.00
2022-12-05T16:49:55.733Z,3.43
2022-12-05T16:52:24.092Z,2.80
2022-12-05T16:54:52.427Z,1.73
2022-12-05T16:57:21.078Z,4.63
2022-12-05T16:59:50.858Z,1.80
2022-12-05T17:02:20.096Z,2.53
2022-12-05T17:04:48.666Z,1.67
2022-12-05T17:07:17.047Z,2.00
2022-12-05T17:09:45.438Z,1.80
2022-12-05T17:12:17.950Z,3.13
2022-12-05T17:14:47.195Z,3.60
2022-12-05T17:17:18.293Z,1.37
2022-12-05T17:19:46.741Z,1.80
2022-12-05T17:22:16.523Z,2.30
2022-12-05T17:24:44.938Z,1.90
2022-12-05T17:27:13.927Z,1.97
2022-12-05T17:29:42.256Z,3.13
2022-12-05T17:32:11.840Z,2.07
2022-12-05T17:34:41.552Z,2.63
2022-12-05T17:37:09.938Z,1.87
2022-12-05T17:39:38.219Z,5.10
2022-12-05T17:42:06.601Z,1.53
2022-12-05T17:44:34.984Z,5.40
2022-12-05T17:47:07.993Z,3.90
2022-12-05T17:49:36.746Z,3.43
2022-12-05T17:52:21.374Z,4.33
2022-12-05T17:54:50.373Z,7.20
2022-12-05T17:57:18.696Z,2.57
2022-12-05T17:59:47.036Z,2.80
2022-12-05T18:02:15.541Z,1.03
2022-12-05T18:04:43.817Z,3.87
2022-12-05T18:07:13.568Z,3.70
2022-12-05T18:09:43.599Z,1.77
2022-12-05T18:12:11.991Z,2.33
2022-12-05T18:14:40.319Z,3.73
2022-12-05T18:17:08.706Z,1.43
2022-12-05T18:19:37.012Z,5.03
2022-12-05T18:22:05.311Z,2.53
2022-12-05T18:24:35.035Z,3.00
2022-12-05T18:27:03.325Z,3.27
2022-12-05T18:29:31.996Z,3.33
2022-12-05T18:32:00.487Z,2.60
2022-12-05T18:34:28.872Z,2.43
2022-12-05T18:36:57.376Z,3.00
2022-12-05T18:39:25.700Z,2.43
2022-12-05T18:41:55.437Z,2.07
2022-12-05T18:44:23.757Z,3.53
2022-12-05T18:46:52.078Z,4.40
2022-12-05T18:49:20.437Z,6.07
2022-12-05T18:51:48.812Z,3.93
2022-12-05T18:54:17.153Z,2.67
2022-12-05T18:56:46.046Z,2.13
2022-12-05T18:59:16.830Z,3.00
2022-12-05T19:01:45.870Z,4.67
2022-12-05T19:04:15.433Z,5.43
2022-12-05T19:06:44.300Z,4.47
2022-12-05T19:09:15.227Z,7.10
2022-12-05T19:11:47.606Z,1.00
2022-12-05T19:14:18.818Z,2.60
2022-12-05T19:16:47.746Z,2.47
2022-12-05T19:19:17.369Z,3.37
2022-12-05T19:21:46.583Z,3.07
2022-12-05T19:24:16.065Z,3.53
2022-12-05T19:26:44.684Z,3.03
2022-12-05T19:29:13.757Z,2.50
2022-12-05T19:31:43.880Z,3.83
2022-12-05T19:34:12.594Z,3.80
2022-12-05T19:36:41.886Z,3.07
2022-12-05T19:39:11.311Z,1.83
2022-12-05T19:41:39.697Z,4.47
2022-12-05T19:44:08.067Z,8.97
2022-12-05T19:46:36.609Z,3.27
2022-12-05T19:49:07.091Z,1.57
2022-12-05T19:51:35.878Z,9.07
2022-12-05T19:54:05.295Z,3.33
2022-12-05T19:56:34.376Z,1.90
2022-12-05T19:59:03.199Z,2.73
2022-12-05T20:01:32.409Z,2.47
2022-12-05T20:04:01.655Z,2.10
2022-12-05T20:06:33.520Z,3.37
2022-12-05T20:09:02.261Z,3.30
2022-12-05T20:11:31.385Z,1.80
2022-12-05T20:14:00.753Z,2.70
2022-12-05T20:16:29.988Z,3.63
2022-12-05T20:18:59.526Z,3.63
2022-12-05T20:21:28.602Z,5.00
2022-12-05T20:23:58.606Z,11.33
2022-12-05T20:26:28.553Z,3.90
2022-12-05T20:28:58.081Z,6.10
2022-12-05T20:31:27.426Z,2.40
2022-12-05T20:33:56.517Z,4.63
2022-12-05T20:36:26.149Z,1.50
2022-12-05T20:38:58.450Z,7.63
2022-12-05T20:41:26.976Z,2.37
2022-12-05T20:43:56.268Z,2.90
2022-12-05T20:46:25.218Z,2.87
2022-12-05T20:48:54.432Z,2.40
2022-12-05T20:51:23.974Z,7.73
2022-12-05T20:53:52.765Z,5.17
2022-12-05T20:56:25.171Z,1.70
2022-12-05T20:58:55.741Z,7.13
2022-12-05T21:01:25.071Z,10.13
2022-12-05T21:03:53.824Z,2.00
2022-12-05T21:06:24.476Z,2.67
2022-12-05T21:08:53.175Z,2.20
2022-12-05T21:11:23.145Z,1.53
2022-12-05T21:13:51.510Z,1.23
2022-12-05T21:16:20.764Z,2.23
2022-12-05T21:18:49.562Z,2.60
2022-12-05T21:21:18.914Z,1.40
2022-12-05T21:23:47.837Z,2.43
2022-12-05T21:26:17.095Z,1.73
2022-12-05T21:28:47.602Z,4.50
2022-12-05T21:31:16.941Z,2.87
2022-12-05T21:33:48.486Z,1.67
2022-12-05T21:36:16.843Z,1.97
2022-12-05T21:38:48.322Z,16.63
2022-12-05T21:41:19.250Z,1.60
2022-12-05T21:43:54.099Z,1.23
2022-12-05T21:46:23.624Z,3.33
2022-12-05T21:48:52.018Z,4.90
2022-12-05T21:51:20.343Z,1.47
2022-12-05T21:53:48.608Z,15.20
2022-12-05T21:56:17.788Z,2.47
2022-12-05T21:58:46.834Z,2.80
2022-12-05T22:01:19.331Z,0.90
2022-12-05T22:03:47.786Z,1.70
2022-12-05T22:06:16.424Z,1.37
2022-12-05T22:08:45.058Z,1.37
2022-12-05T22:11:14.295Z,2.87
2022-12-05T22:13:42.945Z,2.53
2022-12-05T22:16:11.733Z,3.10
2022-12-05T22:18:41.543Z,1.40
2022-12-05T22:21:10.625Z,2.23
2022-12-05T22:23:38.894Z,2.20
2022-12-05T22:26:08.253Z,3.93
2022-12-05T22:28:36.870Z,3.00
2022-12-05T22:31:08.085Z,3.63
2022-12-05T22:33:36.886Z,5.17
2022-12-05T22:36:07.489Z,2.30
2022-12-05T22:38:37.062Z,1.53
2022-12-05T22:41:06.215Z,3.90
2022-12-05T22:43:35.434Z,4.97
2022-12-05T22:46:05.127Z,0.93
2022-12-05T22:48:33.820Z,2.47
2022-12-05T22:51:02.465Z,2.17
2022-12-05T22:53:32.521Z,3.60
2022-12-05T22:56:03.683Z,1.87
2022-12-05T22:58:32.443Z,1.73
2022-12-05T23:01:09.131Z,2.03
2022-12-05T23:03:37.692Z,1.33
2022-12-05T23:06:11.208Z,2.23
2022-12-05T23:08:42.507Z,1.57
2022-12-05T23:11:11.420Z,1.60
2022-12-05T23:13:40.076Z,1.87
2022-12-05T23:16:09.379Z,3.13
2022-12-05T23:18:46.930Z,3.23
2022-12-05T23:21:19.475Z,1.70
2022-12-05T23:23:50.035Z,0.80
2022-12-05T23:26:18.971Z,2.97
2022-12-05T23:28:47.554Z,2.50
2022-12-05T23:31:16.295Z,1.90
2022-12-05T23:33:44.894Z,2.53
2022-12-05T23:36:13.987Z,1.57
2022-12-05T23:38:43.474Z,6.00
2022-12-05T23:41:14.748Z,1.47
2022-12-05T23:43:43.667Z,2.30
2022-12-05T23:46:13.256Z,4.37
2022-12-05T23:48:41.932Z,3.67
2022-12-05T23:51:11.336Z,2.43
2022-12-05T23:53:40.862Z,1.33
2022-12-05T23:56:10.089Z,2.17
2022-12-05T23:58:40.213Z,0.97
